Time;durP1;ratioP1;P1;durP2;ratioP2;P2;SDS_P1;SDS_P2;PMS_P1;PMS_P2;Temp;Humidity;BMP_temperature;BMP_pressure;BME280_temperature;BME280_humidity;BME280_pressure;Samples;Min_cycle;Max_cycle;Signal;HPM_P1;HPM_P2
2023/10/21 04:00:46;;;;;;;1.10;0.60;;;14.60;82.00;;;;;;6027267;23;20398;31
2023/10/21 04:03:13;;;;;;;2.03;0.60;;;14.50;82.50;;;;;;4897793;29;20908;-72
2023/10/21 04:05:42;;;;;;;1.10;0.60;;;14.60;82.30;;;;;;4898992;29;20450;-72
2023/10/21 04:08:09;;;;;;;1.20;0.60;;;14.50;82.00;;;;;;4898766;29;20964;-72
2023/10/21 04:10:36;;;;;;;1.20;0.70;;;14.50;82.60;;;;;;4901033;29;20458;-71
2023/10/21 04:13:04;;;;;;;1.10;0.60;;;14.50;82.60;;;;;;4917749;29;20935;-72
2023/10/21 04:15:31;;;;;;;1.30;0.60;;;14.40;82.70;;;;;;4918880;29;20453;-72
2023/10/21 04:17:59;;;;;;;1.13;0.60;;;14.40;82.90;;;;;;4917924;29;20459;-72
2023/10/21 04:20:26;;;;;;;1.17;0.60;;;14.40;83.00;;;;;;4918243;29;20456;-71
2023/10/21 04:22:52;;;;;;;1.27;0.60;;;14.20;83.20;;;;;;4918105;29;20445;-72
2023/10/21 04:25:19;;;;;;;1.30;0.60;;;14.20;83.70;;;;;;4917974;29;20448;-72
2023/10/21 04:27:46;;;;;;;1.40;0.70;;;14.20;83.90;;;;;;4918254;29;20458;-72
2023/10/21 04:30:12;;;;;;;1.10;0.60;;;14.20;83.80;;;;;;4918162;29;20437;-72
2023/10/21 04:32:38;;;;;;;1.20;0.70;;;14.30;83.70;;;;;;4917861;29;20491;-72
2023/10/21 04:35:08;;;;;;;1.13;0.60;;;14.20;84.00;;;;;;4917831;29;20998;-72
2023/10/21 04:37:35;;;;;;;1.40;0.60;;;14.20;84.20;;;;;;4917711;29;20447;-72
2023/10/21 04:40:02;;;;;;;2.03;0.80;;;14.20;84.00;;;;;;4918093;29;20488;-72
2023/10/21 04:42:29;;;;;;;1.10;0.60;;;14.30;84.10;;;;;;4917842;29;20473;-72
2023/10/21 04:44:56;;;;;;;1.20;0.70;;;14.30;83.80;;;;;;4917873;29;20452;-71
2023/10/21 04:47:23;;;;;;;1.20;0.60;;;14.30;83.90;;;;;;4917958;29;20452;-71
2023/10/21 04:49:49;;;;;;;1.43;0.90;;;14.30;84.00;;;;;;4918116;29;20504;-71
2023/10/21 04:52:19;;;;;;;1.47;0.60;;;14.20;84.10;;;;;;4917836;29;20552;-72
2023/10/21 04:54:46;;;;;;;1.20;0.60;;;14.20;84.60;;;;;;4918175;29;20452;-72
2023/10/21 04:57:13;;;;;;;1.20;0.70;;;14.20;84.40;;;;;;4920776;29;20452;-71
2023/10/21 04:59:39;;;;;;;1.13;0.60;;;14.30;84.20;;;;;;4922101;29;20484;-72
2023/10/21 05:02:07;;;;;;;1.20;0.60;;;14.30;84.10;;;;;;4921255;29;20476;-72
2023/10/21 05:04:35;;;;;;;1.10;0.60;;;14.30;84.50;;;;;;4921696;29;20455;-72
2023/10/21 05:07:02;;;;;;;1.20;0.70;;;14.20;84.50;;;;;;4921346;29;20459;-72
2023/10/21 05:09:30;;;;;;;1.20;0.60;;;14.20;84.80;;;;;;4921008;29;20953;-72
2023/10/21 05:11:57;;;;;;;1.20;0.60;;;14.30;84.90;;;;;;4921207;29;20472;-72
2023/10/21 05:14:24;;;;;;;1.10;0.60;;;14.20;85.00;;;;;;4921287;29;20452;-71
2023/10/21 05:16:50;;;;;;;1.20;0.70;;;14.30;85.10;;;;;;4921230;29;20484;-72
2023/10/21 05:19:17;;;;;;;1.10;0.60;;;14.20;85.20;;;;;;4921694;29;20821;-72
2023/10/21 05:21:44;;;;;;;1.30;0.60;;;14.30;85.10;;;;;;4920875;29;20568;-72
2023/10/21 05:24:11;;;;;;;1.40;0.70;;;14.30;84.80;;;;;;4921138;29;20472;-72
2023/10/21 05:26:39;;;;;;;1.20;0.60;;;14.20;85.10;;;;;;4921023;29;20467;-72
2023/10/21 05:29:07;;;;;;;1.10;0.60;;;14.20;85.00;;;;;;4920515;29;20448;-71
2023/10/21 05:31:34;;;;;;;1.50;0.60;;;14.10;85.10;;;;;;4921046;29;20476;-72
2023/10/21 05:34:01;;;;;;;1.53;0.70;;;14.10;85.90;;;;;;4920980;29;20814;-72
2023/10/21 05:36:27;;;;;;;1.27;0.67;;;14.10;85.50;;;;;;4920897;29;20457;-72
2023/10/21 05:38:54;;;;;;;1.30;0.60;;;14.10;85.40;;;;;;4920718;29;20839;-72
2023/10/21 05:41:21;;;;;;;1.63;0.80;;;14.10;85.60;;;;;;4920865;29;20496;-72
2023/10/21 05:44:08;;;;;;;1.23;0.60;;;14.10;85.60;;;;;;4920582;29;20459;-72
2023/10/21 05:46:34;;;;;;;1.20;0.60;;;14.20;85.50;;;;;;4920468;29;20456;-71
2023/10/21 05:49:02;;;;;;;1.47;0.73;;;14.30;85.20;;;;;;4920702;29;20472;-73
2023/10/21 05:51:29;;;;;;;1.30;0.60;;;14.30;85.00;;;;;;4920807;29;20981;-72
2023/10/21 05:53:57;;;;;;;1.20;0.60;;;14.30;84.80;;;;;;4920576;29;20468;-73
2023/10/21 05:56:24;;;;;;;1.30;0.70;;;14.30;84.60;;;;;;4924267;29;20476;-73
2023/10/21 05:58:50;;;;;;;1.10;0.60;;;14.40;84.80;;;;;;4923279;29;20488;-72
2023/10/21 06:01:18;;;;;;;1.20;0.60;;;14.40;84.30;;;;;;4919843;29;20484;-72
2023/10/21 06:03:45;;;;;;;1.20;0.60;;;14.50;84.20;;;;;;4920095;29;20455;-72
2023/10/21 06:06:12;;;;;;;1.33;0.70;;;14.50;83.90;;;;;;4919865;29;20508;-72
2023/10/21 06:08:38;;;;;;;1.10;0.60;;;14.40;84.40;;;;;;4918637;29;20967;-72
2023/10/21 06:11:05;;;;;;;1.50;0.70;;;14.30;84.70;;;;;;4919271;29;20994;-72
2023/10/21 06:13:32;;;;;;;1.20;0.67;;;14.40;84.50;;;;;;4919605;29;20821;-72
2023/10/21 06:15:59;;;;;;;1.47;0.80;;;14.20;85.10;;;;;;4919499;29;20556;-72
2023/10/21 06:18:27;;;;;;;2.00;0.67;;;14.20;85.30;;;;;;4919379;29;20475;-72
2023/10/21 06:20:53;;;;;;;1.30;0.70;;;14.30;84.90;;;;;;4919084;29;21014;-73
2023/10/21 06:23:21;;;;;;;1.40;0.60;;;14.30;84.60;;;;;;4919360;29;20504;-72
2023/10/21 06:25:48;;;;;;;1.40;1.20;;;14.40;84.20;;;;;;4919025;29;20943;-72
2023/10/21 06:28:15;;;;;;;1.20;0.60;;;14.50;84.10;;;;;;4919249;29;20448;-72
2023/10/21 06:30:42;;;;;;;1.40;0.60;;;14.60;83.80;;;;;;4918864;29;20567;-72
2023/10/21 06:33:09;;;;;;;1.50;0.60;;;14.90;83.70;;;;;;4918882;29;20452;-73
2023/10/21 06:35:39;;;;;;;1.30;0.70;;;15.70;80.90;;;;;;4918832;29;20950;-73
2023/10/21 06:38:06;;;;;;;1.93;0.60;;;17.00;77.80;;;;;;4919159;29;20452;-74
2023/10/21 06:40:33;;;;;;;1.40;0.80;;;18.10;75.00;;;;;;4918944;29;20491;-73
2023/10/21 06:43:00;;;;;;;1.20;0.70;;;18.80;71.70;;;;;;4919152;29;20504;-73
2023/10/21 06:45:27;;;;;;;1.30;0.70;;;19.40;69.50;;;;;;4918968;29;20456;-73
2023/10/21 06:47:54;;;;;;;1.30;0.60;;;19.40;69.10;;;;;;4918992;29;20508;-73
2023/10/21 06:50:21;;;;;;;1.23;0.73;;;18.80;69.70;;;;;;4919107;29;20476;-73
2023/10/21 06:52:49;;;;;;;1.40;0.60;;;18.40;71.00;;;;;;4918893;29;20456;-73
2023/10/21 06:55:18;;;;;;;1.27;0.60;;;19.00;70.40;;;;;;4918487;29;20939;-73
2023/10/21 06:57:45;;;;;;;1.20;0.60;;;20.20;67.80;;;;;;4918835;29;20528;-73
2023/10/21 07:00:13;;;;;;;1.93;1.03;;;21.40;64.70;;;;;;4918813;29;20480;-73
2023/10/21 07:02:40;;;;;;;1.20;0.70;;;22.90;62.40;;;;;;4918509;29;20521;-74
2023/10/21 07:05:09;;;;;;;3.10;0.90;;;24.00;58.40;;;;;;4918630;29;20457;-74
2023/10/21 07:07:37;;;;;;;1.30;0.70;;;25.00;56.40;;;;;;4918371;29;20460;-74
2023/10/21 07:10:07;;;;;;;1.40;0.80;;;24.60;56.20;;;;;;4918318;29;20532;-73
2023/10/21 07:12:35;;;;;;;1.20;0.60;;;24.20;55.90;;;;;;4918050;29;20469;-73
2023/10/21 07:15:01;;;;;;;1.23;0.60;;;23.90;56.60;;;;;;4918607;29;20488;-74
2023/10/21 07:17:31;;;;;;;1.50;0.70;;;24.70;55.40;;;;;;4918225;29;20973;-74
2023/10/21 07:19:57;;;;;;;1.50;0.70;;;25.30;54.50;;;;;;4917342;29;20998;-73
2023/10/21 07:22:24;;;;;;;1.20;0.60;;;25.40;52.90;;;;;;4918258;29;20468;-73
2023/10/21 07:24:55;;;;;;;1.10;0.57;;;25.10;53.90;;;;;;4918337;29;20459;-74
2023/10/21 07:27:23;;;;;;;1.30;0.60;;;26.20;51.20;;;;;;4918006;29;20907;-71
2023/10/21 07:29:50;;;;;;;1.30;0.70;;;27.00;50.40;;;;;;4918193;29;20452;-71
2023/10/21 07:32:17;;;;;;;1.30;0.70;;;28.40;48.80;;;;;;4918100;29;20475;-71
2023/10/21 07:34:43;;;;;;;1.10;0.60;;;29.90;46.70;;;;;;4918115;29;20453;-74
2023/10/21 07:37:10;;;;;;;1.10;0.50;;;30.30;43.60;;;;;;4917791;29;20520;-74
2023/10/21 07:39:37;;;;;;;1.10;0.60;;;29.50;45.40;;;;;;4917999;29;20830;-74
2023/10/21 07:42:04;;;;;;;1.10;0.60;;;29.00;47.10;;;;;;4917790;29;20492;-74
2023/10/21 07:44:32;;;;;;;1.10;0.60;;;28.50;46.40;;;;;;4917942;29;20448;-74
2023/10/21 07:46:59;;;;;;;1.70;0.67;;;27.10;48.10;;;;;;4917906;29;20456;-73
2023/10/21 07:49:26;;;;;;;1.20;0.60;;;26.40;49.50;;;;;;4917890;29;20471;-73
2023/10/21 07:51:52;;;;;;;1.10;0.60;;;25.20;51.80;;;;;;4917794;29;20512;-73
2023/10/21 07:54:19;;;;;;;1.30;0.70;;;24.60;52.40;;;;;;4917914;29;20453;-73
2023/10/21 07:56:46;;;;;;;1.20;0.70;;;24.50;53.80;;;;;;4917729;29;20448;-74
2023/10/21 07:59:13;;;;;;;1.20;0.60;;;24.50;52.50;;;;;;4917476;29;20491;-73
2023/10/21 08:01:41;;;;;;;1.40;0.70;;;24.30;55.50;;;;;;4917435;29;20487;-74
2023/10/21 08:04:08;;;;;;;1.20;0.60;;;23.50;54.50;;;;;;4917735;29;20460;-73
2023/10/21 08:06:35;;;;;;;1.20;0.60;;;22.00;58.60;;;;;;4917696;29;20859;-73
2023/10/21 08:09:04;;;;;;;1.20;0.70;;;21.40;60.50;;;;;;4917611;29;20452;-73
2023/10/21 08:11:31;;;;;;;1.17;0.60;;;20.60;62.90;;;;;;4917501;29;20915;-73
2023/10/21 08:13:58;;;;;;;1.50;0.70;;;20.40;62.70;;;;;;4917525;29;20460;-73
2023/10/21 08:16:24;;;;;;;1.23;0.70;;;19.90;63.70;;;;;;4917497;29;20809;-73
2023/10/21 08:18:52;;;;;;;1.40;0.70;;;19.60;64.10;;;;;;4917242;29;20925;-73
2023/10/21 08:21:19;;;;;;;2.73;0.70;;;19.30;65.50;;;;;;4917429;29;20491;-73
2023/10/21 08:23:46;;;;;;;1.40;0.70;;;19.00;66.60;;;;;;4917419;29;20449;-73
2023/10/21 08:26:12;;;;;;;1.40;0.60;;;18.50;67.90;;;;;;4917455;29;20448;-73
2023/10/21 08:28:39;;;;;;;1.30;0.60;;;18.20;68.10;;;;;;4917382;29;20449;-73
2023/10/21 08:31:08;;;;;;;1.20;0.60;;;17.90;69.20;;;;;;4917070;29;20472;-73
2023/10/21 08:33:34;;;;;;;1.13;0.57;;;18.00;70.30;;;;;;4917404;29;20468;-73
2023/10/21 08:36:03;;;;;;;1.10;0.60;;;17.90;68.90;;;;;;4917283;29;20455;-73
2023/10/21 08:38:29;;;;;;;1.80;0.70;;;17.70;70.50;;;;;;4917410;29;20862;-73
2023/10/21 08:40:56;;;;;;;1.30;0.70;;;17.70;69.80;;;;;;4917021;29;20500;-73
2023/10/21 08:43:23;;;;;;;1.50;0.80;;;17.50;69.40;;;;;;4917233;29;20520;-73
2023/10/21 08:45:51;;;;;;;1.20;0.60;;;17.40;69.90;;;;;;4917189;29;20460;-73
2023/10/21 08:48:18;;;;;;;1.40;0.70;;;17.50;71.00;;;;;;4916899;29;20555;-73
2023/10/21 08:50:49;;;;;;;1.30;0.73;;;17.60;70.80;;;;;;4917093;29;20491;-73
2023/10/21 08:53:17;;;;;;;1.50;0.60;;;17.70;70.20;;;;;;4917875;29;20433;-73
2023/10/21 08:55:45;;;;;;;1.20;0.60;;;17.40;69.40;;;;;;4917018;29;20456;-73
2023/10/21 08:58:12;;;;;;;1.40;0.70;;;17.20;70.50;;;;;;4917204;29;20459;-73
2023/10/21 09:00:39;;;;;;;1.33;0.70;;;17.10;70.10;;;;;;4916783;29;20488;-74
2023/10/21 09:03:08;;;;;;;1.67;0.70;;;16.90;71.20;;;;;;4917147;29;20450;-73
2023/10/21 09:05:36;;;;;;;1.70;0.70;;;17.00;72.00;;;;;;4917147;29;20950;-74
2023/10/21 09:08:03;;;;;;;1.20;0.60;;;17.00;71.40;;;;;;4917141;29;20449;-73
2023/10/21 09:10:32;;;;;;;1.73;0.90;;;17.00;71.40;;;;;;4916954;29;20484;-73
2023/10/21 09:13:14;;;;;;;1.50;0.60;;;17.10;72.90;;;;;;4917214;29;20459;-74
2023/10/21 09:15:41;;;;;;;1.30;0.70;;;17.40;71.50;;;;;;4916978;29;20429;-73
2023/10/21 09:18:10;;;;;;;1.30;0.70;;;17.40;71.00;;;;;;4917095;29;20448;-73
2023/10/21 09:20:38;;;;;;;1.20;0.67;;;17.30;71.20;;;;;;4916853;29;20578;-73
2023/10/21 09:23:05;;;;;;;1.50;0.90;;;17.00;72.20;;;;;;4917092;29;20448;-73
2023/10/21 09:25:35;;;;;;;1.60;0.70;;;16.90;72.50;;;;;;4916788;29;20488;-73
2023/10/21 09:28:01;;;;;;;1.30;0.60;;;16.90;73.70;;;;;;4916500;29;20461;-73
2023/10/21 09:30:30;;;;;;;1.77;0.70;;;16.90;72.20;;;;;;4916866;29;20447;-74
2023/10/21 09:33:03;;;;;;;1.40;0.70;;;17.00;72.70;;;;;;4916917;29;20846;-74
2023/10/21 09:35:32;;;;;;;1.20;0.60;;;17.00;72.80;;;;;;4916847;29;20437;-74
2023/10/21 09:38:14;;;;;;;1.20;0.60;;;17.30;72.10;;;;;;4916551;29;20942;-73
2023/10/21 09:40:43;;;;;;;1.90;1.00;;;17.40;70.20;;;;;;4916299;29;20465;-73
2023/10/21 09:43:13;;;;;;;1.53;0.93;;;17.50;71.40;;;;;;4917653;29;20472;-73
2023/10/21 09:45:42;;;;;;;1.17;0.63;;;17.40;70.40;;;;;;4920491;29;20455;-73
2023/10/21 09:48:12;;;;;;;1.33;0.70;;;17.40;70.60;;;;;;4920140;29;20813;-73
2023/10/21 09:50:43;;;;;;;2.43;0.93;;;17.40;71.10;;;;;;4920278;29;20440;-73
2023/10/21 09:53:15;;;;;;;2.33;0.70;;;17.70;70.40;;;;;;4920638;29;20437;-73
2023/10/21 09:55:43;;;;;;;1.20;0.70;;;17.50;67.50;;;;;;4920367;29;20445;-73
2023/10/21 09:58:10;;;;;;;1.50;0.80;;;17.40;68.50;;;;;;4920317;29;20459;-73
2023/10/21 10:00:37;;;;;;;1.90;0.93;;;17.40;69.80;;;;;;4920057;29;20579;-74
2023/10/21 10:03:06;;;;;;;1.20;0.67;;;17.20;68.80;;;;;;4920262;29;20444;-74
2023/10/21 10:05:34;;;;;;;2.07;0.77;;;17.40;71.40;;;;;;4919882;29;20906;-73
2023/10/21 10:08:01;;;;;;;1.30;0.70;;;17.50;68.30;;;;;;4920541;29;20539;-74
2023/10/21 10:10:28;;;;;;;1.70;0.70;;;17.60;67.40;;;;;;4920593;29;20440;-74
2023/10/21 10:12:59;;;;;;;1.30;0.60;;;17.70;68.10;;;;;;4920442;29;20485;-73
2023/10/21 10:15:31;;;;;;;1.20;0.60;;;18.00;67.60;;;;;;4920833;29;20448;-74
2023/10/21 10:17:58;;;;;;;1.20;0.70;;;18.10;65.90;;;;;;4920447;29;20456;-74
2023/10/21 10:20:26;;;;;;;1.70;0.80;;;18.00;65.90;;;;;;4919902;29;20484;-74
2023/10/21 10:22:58;;;;;;;1.20;0.70;;;18.00;67.30;;;;;;4920046;29;20885;-74
2023/10/21 10:25:26;;;;;;;1.30;0.70;;;18.10;66.60;;;;;;4920093;29;20485;-74
2023/10/21 10:27:59;;;;;;;2.03;0.60;;;18.10;65.40;;;;;;4919680;29;21034;-74
2023/10/21 10:30:31;;;;;;;1.20;0.70;;;18.20;65.90;;;;;;4919673;29;20429;-74
2023/10/21 10:33:01;;;;;;;1.50;0.70;;;18.20;68.20;;;;;;4919455;29;20492;-73
2023/10/21 10:35:32;;;;;;;2.10;0.60;;;18.00;66.40;;;;;;4919272;29;20959;-74
2023/10/21 10:38:00;;;;;;;1.87;0.80;;;17.90;67.40;;;;;;4919751;29;20445;-74
2023/10/21 10:40:35;;;;;;;1.20;0.60;;;17.80;67.20;;;;;;4920070;29;20575;-73
2023/10/21 10:43:04;;;;;;;1.73;0.97;;;17.90;66.20;;;;;;4919491;29;20463;-73
2023/10/21 10:45:33;;;;;;;1.30;0.80;;;18.00;65.60;;;;;;4919636;29;20865;-73
2023/10/21 10:48:02;;;;;;;1.10;0.60;;;17.80;65.30;;;;;;4919644;29;20452;-74
2023/10/21 10:50:28;;;;;;;1.40;0.70;;;17.60;65.00;;;;;;4919126;29;20488;-73
2023/10/21 10:52:55;;;;;;;1.70;0.70;;;17.70;66.10;;;;;;4919327;29;20849;-72
2023/10/21 10:55:22;;;;;;;1.40;0.70;;;17.60;64.80;;;;;;4919112;29;20457;-72
2023/10/21 10:57:51;;;;;;;1.40;0.60;;;17.50;63.90;;;;;;4919373;29;20456;-74
2023/10/21 11:00:22;;;;;;;1.50;0.60;;;17.70;63.70;;;;;;4919427;29;20515;-74
2023/10/21 11:02:50;;;;;;;1.40;0.60;;;17.70;64.00;;;;;;4918931;29;20471;-73
2023/10/21 11:05:19;;;;;;;1.20;0.60;;;17.60;64.50;;;;;;4919028;29;20513;-74
2023/10/21 11:07:47;;;;;;;1.20;0.67;;;17.60;64.10;;;;;;4919190;29;20452;-74
2023/10/21 11:10:19;;;;;;;1.90;0.70;;;17.50;62.90;;;;;;4919351;29;20448;-74
2023/10/21 11:12:47;;;;;;;1.20;0.60;;;17.30;63.90;;;;;;4919140;29;20502;-74
2023/10/21 11:15:14;;;;;;;1.50;0.60;;;17.50;63.60;;;;;;4920482;29;20452;-73
2023/10/21 11:17:46;;;;;;;1.30;0.70;;;17.60;64.50;;;;;;4919201;29;20888;-74
2023/10/21 11:20:14;;;;;;;1.10;0.60;;;17.70;64.90;;;;;;4919420;29;20449;-73
2023/10/21 11:22:40;;;;;;;1.90;0.70;;;17.60;64.40;;;;;;4919224;29;20829;-74
2023/10/21 11:25:08;;;;;;;1.43;0.80;;;17.70;64.20;;;;;;4918524;29;20955;-74
2023/10/21 11:27:35;;;;;;;1.40;0.70;;;17.40;63.70;;;;;;4918677;29;20453;-73
2023/10/21 11:30:07;;;;;;;1.97;0.93;;;17.50;63.20;;;;;;4918866;29;20528;-74
2023/10/21 11:32:35;;;;;;;2.17;0.80;;;17.30;63.80;;;;;;4919016;29;20477;-74
2023/10/21 11:35:04;;;;;;;1.23;0.60;;;17.20;64.80;;;;;;4918998;29;20508;-74
2023/10/21 11:37:31;;;;;;;1.57;0.70;;;17.20;65.00;;;;;;4918963;29;20455;-73
2023/10/21 11:39:58;;;;;;;1.63;0.80;;;17.20;65.80;;;;;;4919134;29;20453;-75
2023/10/21 11:42:24;;;;;;;1.27;0.67;;;17.20;65.00;;;;;;4918685;29;20488;-75
2023/10/21 11:44:58;;;;;;;1.80;0.90;;;17.30;63.80;;;;;;4918829;29;20500;-74
2023/10/21 11:47:27;;;;;;;1.10;0.60;;;17.30;63.00;;;;;;4918476;29;20449;-75
2023/10/21 11:49:55;;;;;;;1.83;0.67;;;17.30;63.70;;;;;;4918768;29;20452;-72
2023/10/21 11:52:26;;;;;;;1.10;0.60;;;17.40;64.10;;;;;;4918605;29;20477;-73
2023/10/21 11:58:28;;;;;;;1.20;0.70;;;17.50;63.90;;;;;;4918715;29;20843;-74
2023/10/21 12:14:56;;;;;;;1.20;0.70;;;18.30;61.30;;;;;;4898844;29;20448;-74
2023/10/21 12:23:27;;;;;;;1.83;0.67;;;18.70;60.80;;;;;;4918950;29;20770;-74
2023/10/21 12:31:50;;;;;;;1.50;0.60;;;18.80;63.20;;;;;;4897832;29;20455;-74
2023/10/21 12:34:29;;;;;;;1.60;0.80;;;18.80;60.60;;;;;;4918957;29;20535;-74
2023/10/21 12:39:44;;;;;;;1.20;0.60;;;18.40;61.20;;;;;;4918559;29;20856;-74
2023/10/21 12:42:21;;;;;;;1.93;0.70;;;18.30;62.80;;;;;;4918707;29;20492;-73
2023/10/21 12:44:51;;;;;;;1.20;0.60;;;18.20;63.00;;;;;;4918717;29;20469;-74
2023/10/21 12:47:18;;;;;;;1.17;0.70;;;17.70;62.40;;;;;;4918730;29;20988;-73
2023/10/21 12:49:48;;;;;;;1.50;0.70;;;17.60;62.70;;;;;;4918592;29;20448;-73
2023/10/21 12:52:16;;;;;;;1.20;0.60;;;17.50;62.10;;;;;;4918290;29;20484;-73
2023/10/21 12:54:43;;;;;;;1.70;0.70;;;17.50;63.60;;;;;;4918131;29;20974;-73
2023/10/21 12:57:11;;;;;;;1.10;0.60;;;17.40;62.60;;;;;;4918876;29;20460;-73
2023/10/21 12:59:38;;;;;;;1.57;0.60;;;17.50;62.30;;;;;;4918002;29;20453;-74
2023/10/21 13:02:07;;;;;;;1.40;0.77;;;17.70;62.80;;;;;;4917594;29;20503;-74
2023/10/21 13:04:35;;;;;;;1.20;0.70;;;18.00;62.60;;;;;;4918453;29;20449;-73
2023/10/21 13:07:04;;;;;;;1.20;0.60;;;18.60;62.40;;;;;;4918396;29;20444;-74
2023/10/21 13:09:31;;;;;;;1.30;0.60;;;19.60;59.40;;;;;;4917885;29;20973;-74
2023/10/21 13:11:58;;;;;;;2.37;0.80;;;20.40;57.50;;;;;;4918151;29;20524;-74
2023/10/21 13:14:27;;;;;;;1.10;0.60;;;20.50;56.90;;;;;;4917814;29;20881;-73
2023/10/21 13:16:54;;;;;;;1.40;0.70;;;20.50;56.20;;;;;;4918803;29;20460;-74
2023/10/21 13:19:21;;;;;;;1.40;0.70;;;21.00;56.10;;;;;;4922208;29;20445;-74
2023/10/21 13:21:48;;;;;;;1.60;0.70;;;21.60;54.70;;;;;;4921547;29;20484;-74
2023/10/21 13:24:15;;;;;;;1.17;0.60;;;23.00;52.40;;;;;;4922112;29;20461;-74
2023/10/21 13:26:43;;;;;;;1.20;0.60;;;24.90;47.80;;;;;;4922035;29;20452;-74
2023/10/21 13:29:10;;;;;;;1.30;0.70;;;25.10;47.80;;;;;;4921902;29;20453;-73
2023/10/21 13:31:39;;;;;;;1.40;0.70;;;26.10;46.40;;;;;;4921922;29;20468;-74
2023/10/21 13:34:06;;;;;;;1.40;0.70;;;26.40;44.30;;;;;;4921486;29;20445;-73
2023/10/21 13:36:33;;;;;;;1.60;0.60;;;27.00;44.60;;;;;;4921751;29;20516;-74
2023/10/21 13:39:08;;;;;;;1.50;0.80;;;27.60;42.00;;;;;;4921457;29;20449;-73
2023/10/21 13:41:35;;;;;;;1.87;0.60;;;28.60;41.50;;;;;;4921085;29;20496;-74
2023/10/21 13:44:05;;;;;;;1.80;0.70;;;30.70;39.20;;;;;;4921757;29;20483;-74
2023/10/21 13:46:33;;;;;;;1.50;0.70;;;30.60;37.20;;;;;;4922214;29;20449;-73
2023/10/21 13:49:02;;;;;;;1.30;0.60;;;29.70;37.90;;;;;;4921449;29;20453;-73
2023/10/21 13:51:29;;;;;;;1.93;0.80;;;30.10;38.10;;;;;;4922041;29;20484;-73
2023/10/21 13:53:56;;;;;;;1.20;0.70;;;27.20;40.90;;;;;;4922096;29;20455;-73
2023/10/21 13:56:22;;;;;;;1.27;0.77;;;25.80;43.90;;;;;;4921548;29;20452;-73
2023/10/21 13:58:49;;;;;;;1.20;0.67;;;25.50;44.10;;;;;;4921158;29;20459;-73
2023/10/21 14:01:16;;;;;;;1.70;0.90;;;25.90;43.90;;;;;;4920756;29;20495;-73
2023/10/21 14:03:42;;;;;;;2.70;0.80;;;25.90;44.00;;;;;;4920717;29;20828;-74
2023/10/21 14:06:11;;;;;;;1.30;0.80;;;25.00;44.80;;;;;;4921092;29;20456;-73
2023/10/21 14:08:38;;;;;;;1.63;0.70;;;24.00;47.60;;;;;;4921116;29;20459;-73
2023/10/21 14:11:08;;;;;;;1.57;0.80;;;23.70;49.10;;;;;;4921058;29;20468;-72
2023/10/21 14:13:35;;;;;;;1.30;0.70;;;23.40;48.90;;;;;;4921965;29;20452;-73
2023/10/21 14:16:05;;;;;;;1.40;0.80;;;22.90;49.50;;;;;;4921379;29;20449;-73
2023/10/21 14:18:32;;;;;;;1.20;0.70;;;22.30;50.50;;;;;;4921743;29;20449;-73
2023/10/21 14:20:59;;;;;;;1.40;0.90;;;21.30;52.90;;;;;;4921134;29;20468;-73
2023/10/21 14:23:28;;;;;;;1.83;0.70;;;20.50;54.40;;;;;;4921532;29;20460;-73
2023/10/21 14:25:56;;;;;;;1.20;0.67;;;20.00;55.80;;;;;;4921572;29;20464;-73
2023/10/21 14:28:26;;;;;;;1.30;0.73;;;19.90;56.60;;;;;;4920973;29;20485;-73
2023/10/21 14:30:53;;;;;;;1.60;0.80;;;19.80;57.70;;;;;;4920937;29;20477;-73
2023/10/21 14:33:21;;;;;;;1.33;0.70;;;20.90;56.50;;;;;;4920837;29;20499;-73
2023/10/21 14:35:50;;;;;;;1.40;0.70;;;22.90;52.60;;;;;;4920637;29;20475;-73
2023/10/21 14:38:18;;;;;;;1.30;0.70;;;24.70;48.70;;;;;;4920955;29;20453;-73
2023/10/21 14:40:47;;;;;;;1.50;0.90;;;25.50;46.60;;;;;;4920467;29;20842;-74
2023/10/21 14:43:15;;;;;;;1.27;0.77;;;24.50;47.30;;;;;;4920654;29;20488;-73
2023/10/21 14:45:43;;;;;;;1.57;0.87;;;24.00;49.20;;;;;;4920490;29;20457;-73
2023/10/21 14:48:11;;;;;;;1.20;0.60;;;23.00;50.90;;;;;;4920936;29;20487;-73
2023/10/21 14:50:38;;;;;;;1.30;0.70;;;22.40;52.00;;;;;;4920416;29;20459;-73
2023/10/21 14:53:08;;;;;;;1.30;0.70;;;21.70;52.80;;;;;;4920733;29;20449;-74
2023/10/21 14:55:35;;;;;;;1.37;0.70;;;20.90;54.00;;;;;;4919968;29;20811;-74
2023/10/21 14:58:05;;;;;;;1.37;0.70;;;20.30;56.00;;;;;;4920387;29;20485;-74
2023/10/21 15:00:31;;;;;;;1.93;0.80;;;20.10;57.50;;;;;;4920056;29;20457;-74
2023/10/21 15:02:58;;;;;;;1.57;0.70;;;19.80;56.50;;;;;;4919901;29;20488;-74
2023/10/21 15:05:25;;;;;;;1.50;0.80;;;19.40;57.90;;;;;;4919979;29;20480;-74
2023/10/21 15:07:52;;;;;;;1.30;0.70;;;19.30;58.40;;;;;;4919907;29;20448;-74
2023/10/21 15:10:20;;;;;;;1.40;0.63;;;19.00;59.90;;;;;;4920542;29;20453;-73
2023/10/21 15:12:48;;;;;;;1.20;0.60;;;19.00;60.10;;;;;;4920063;29;20468;-73
2023/10/21 15:15:17;;;;;;;1.20;0.70;;;18.60;61.10;;;;;;4919957;29;20456;-74
2023/10/21 15:17:46;;;;;;;1.50;0.67;;;18.50;61.60;;;;;;4920336;29;20547;-73
2023/10/21 15:20:14;;;;;;;1.73;0.80;;;18.40;61.50;;;;;;4920318;29;20826;-73
2023/10/21 15:22:42;;;;;;;1.23;0.63;;;18.30;62.20;;;;;;4919883;29;20500;-75
2023/10/21 15:25:14;;;;;;;1.30;0.70;;;18.40;62.40;;;;;;4919705;29;20457;-73
2023/10/21 15:27:44;;;;;;;1.57;0.70;;;18.40;62.30;;;;;;4920199;29;20465;-74
2023/10/21 15:30:12;;;;;;;1.57;0.97;;;18.50;62.10;;;;;;4919841;29;20491;-74
2023/10/21 15:32:43;;;;;;;1.20;0.70;;;18.40;61.80;;;;;;4919830;29;20468;-74
2023/10/21 15:35:10;;;;;;;1.37;0.70;;;18.30;62.50;;;;;;4919657;29;20528;-74
2023/10/21 15:37:38;;;;;;;1.47;0.80;;;18.30;63.00;;;;;;4919638;29;20481;-74
2023/10/21 15:40:07;;;;;;;1.50;0.90;;;18.10;63.00;;;;;;4919404;29;20457;-74
2023/10/21 15:42:34;;;;;;;1.50;0.77;;;17.90;63.90;;;;;;4919369;29;20522;-74
2023/10/21 15:45:01;;;;;;;1.40;0.70;;;18.00;64.10;;;;;;4918460;29;20547;-74
2023/10/21 15:47:27;;;;;;;1.90;0.90;;;18.00;64.00;;;;;;4918330;29;20465;-74
2023/10/21 15:49:56;;;;;;;1.97;0.70;;;18.10;64.20;;;;;;4918434;29;20456;-74
2023/10/21 15:52:22;;;;;;;1.57;0.70;;;18.10;63.70;;;;;;4918052;29;20564;-74
2023/10/21 15:54:49;;;;;;;1.43;0.80;;;18.00;63.50;;;;;;4917845;29;20453;-74
2023/10/21 15:57:16;;;;;;;1.30;0.77;;;17.90;63.90;;;;;;4917867;29;20455;-74
2023/10/21 15:59:42;;;;;;;1.47;0.90;;;17.90;63.90;;;;;;4917731;29;20453;-74
2023/10/21 16:02:10;;;;;;;1.30;0.63;;;17.90;64.10;;;;;;4917461;29;20551;-74
2023/10/21 16:04:37;;;;;;;1.30;0.80;;;18.00;64.00;;;;;;4917760;29;20453;-74
2023/10/21 16:07:05;;;;;;;1.53;0.70;;;18.10;64.30;;;;;;4917864;29;20460;-74
2023/10/21 16:09:32;;;;;;;1.87;0.80;;;18.10;64.40;;;;;;4918054;29;20452;-75
2023/10/21 16:11:59;;;;;;;1.40;0.77;;;18.20;63.80;;;;;;4917747;29;20464;-74
2023/10/21 16:14:26;;;;;;;2.37;0.90;;;18.10;63.80;;;;;;4918285;29;20460;-71
2023/10/21 16:16:52;;;;;;;1.40;0.70;;;18.20;63.50;;;;;;4917456;29;20453;-70
2023/10/21 16:19:19;;;;;;;1.40;0.73;;;18.20;63.70;;;;;;4917389;29;20496;-70
2023/10/21 16:21:46;;;;;;;1.20;0.70;;;18.20;64.00;;;;;;4917171;29;20528;-71
2023/10/21 16:24:14;;;;;;;1.70;1.10;;;18.20;63.50;;;;;;4917343;29;20456;-70
2023/10/21 16:26:41;;;;;;;2.50;1.00;;;18.20;64.10;;;;;;4917251;29;20480;-70
2023/10/21 16:29:08;;;;;;;1.60;0.80;;;18.30;64.10;;;;;;4917203;29;20495;-70
2023/10/21 16:31:35;;;;;;;1.40;0.80;;;18.30;64.20;;;;;;4917053;29;20902;-70
2023/10/21 16:34:02;;;;;;;1.80;1.10;;;18.20;64.80;;;;;;4916812;29;20870;-70
2023/10/21 16:36:28;;;;;;;1.60;0.80;;;18.20;64.50;;;;;;4917114;29;20487;-70
2023/10/21 16:38:55;;;;;;;1.37;0.77;;;18.20;65.10;;;;;;4917127;29;20476;-70
2023/10/21 16:41:23;;;;;;;1.70;1.10;;;18.20;65.70;;;;;;4917003;29;20527;-71
2023/10/21 16:43:52;;;;;;;1.30;0.90;;;18.10;65.40;;;;;;4916991;29;20488;-70
2023/10/21 16:46:19;;;;;;;1.40;0.80;;;18.00;64.80;;;;;;4916897;29;20457;-70
2023/10/21 16:48:46;;;;;;;1.70;1.00;;;18.00;64.70;;;;;;4916816;29;20452;-70
2023/10/21 16:51:13;;;;;;;1.30;0.77;;;17.90;63.30;;;;;;4916573;29;20994;-70
2023/10/21 16:53:39;;;;;;;1.20;0.73;;;17.60;63.70;;;;;;4922781;29;20449;-70
2023/10/21 16:56:09;;;;;;;1.73;1.20;;;17.50;64.00;;;;;;4923110;29;20451;-70
2023/10/21 16:58:37;;;;;;;1.30;0.80;;;17.50;63.80;;;;;;4922851;29;20482;-70
2023/10/21 17:01:04;;;;;;;1.90;1.33;;;17.40;64.50;;;;;;4922927;29;20488;-70
2023/10/21 17:03:31;;;;;;;1.90;1.20;;;17.50;64.80;;;;;;4923144;29;20488;-70
2023/10/21 17:06:00;;;;;;;1.83;0.97;;;17.50;65.30;;;;;;4923221;29;20452;-70
2023/10/21 17:08:29;;;;;;;1.50;1.00;;;17.40;65.10;;;;;;4923208;29;20452;-70
2023/10/21 17:10:56;;;;;;;1.50;1.10;;;17.30;66.80;;;;;;4923378;29;20477;-70
2023/10/21 17:13:23;;;;;;;2.00;1.00;;;17.30;66.90;;;;;;4923122;29;20448;-70
2023/10/21 17:15:51;;;;;;;2.03;1.77;;;17.30;67.20;;;;;;4923056;29;20483;-70
2023/10/21 17:18:18;;;;;;;1.67;1.40;;;17.20;67.20;;;;;;4923109;29;20497;-70
2023/10/21 17:20:45;;;;;;;1.47;1.03;;;17.20;67.40;;;;;;4923063;29;20472;-70
2023/10/21 17:23:11;;;;;;;1.50;1.10;;;17.10;67.60;;;;;;4922973;29;20479;-70